Time;durP1;ratioP1;P1;durP2;ratioP2;P2;SDS_P1;SDS_P2;PMS_P1;PMS_P2;Temp;Humidity;BMP_temperature;BMP_pressure;BME280_temperature;BME280_humidity;BME280_pressure;Samples;Min_cycle;Max_cycle;Signal;HPM_P1;HPM_P2
2022/12/28 00:00:22;;;;;;;12.88;3.50;;;6.00;99.90;;;;;;4973425;28;20560;-85
2022/12/28 00:02:47;;;;;;;13.75;3.90;;;6.00;99.90;;;;;;4979641;28;20042;-85
2022/12/28 00:05:13;;;;;;;11.15;3.70;;;6.00;99.90;;;;;;4955792;28;20491;-85
2022/12/28 00:07:39;;;;;;;11.13;3.65;;;6.00;99.90;;;;;;4956159;28;20392;-85
2022/12/28 00:10:05;;;;;;;16.50;4.00;;;6.00;99.90;;;;;;4987920;28;20039;-85
2022/12/28 00:12:31;;;;;;;10.90;3.58;;;6.00;99.90;;;;;;4975333;28;20042;-85
2022/12/28 00:14:58;;;;;;;9.55;3.28;;;6.00;99.90;;;;;;4990154;28;20141;-85
2022/12/28 00:17:24;;;;;;;10.05;3.95;;;6.00;99.90;;;;;;4963029;28;20046;-85
2022/12/28 00:19:49;;;;;;;11.43;3.50;;;6.00;99.90;;;;;;4970239;28;20050;-85
2022/12/28 00:22:15;;;;;;;11.32;3.78;;;5.90;99.90;;;;;;4969563;28;20053;-85
2022/12/28 00:24:40;;;;;;;12.50;3.70;;;6.00;99.90;;;;;;4996964;28;20125;-84
2022/12/28 00:27:06;;;;;;;11.52;3.92;;;6.00;99.90;;;;;;4978043;28;20057;-85
2022/12/28 00:29:32;;;;;;;10.48;3.83;;;6.00;99.90;;;;;;4976996;28;20519;-85
2022/12/28 00:31:57;;;;;;;9.70;4.00;;;6.00;99.90;;;;;;4978383;28;20133;-85
2022/12/28 00:34:23;;;;;;;8.77;3.63;;;5.90;99.90;;;;;;4991226;28;20149;-85
2022/12/28 00:36:52;;;;;;;11.73;3.92;;;5.90;99.90;;;;;;4988533;28;20482;-85
2022/12/28 00:39:19;;;;;;;11.55;4.18;;;6.00;99.90;;;;;;4996676;28;20038;-85
2022/12/28 00:41:45;;;;;;;9.45;3.90;;;6.00;99.90;;;;;;4974510;28;20051;-85
2022/12/28 00:44:11;;;;;;;12.77;3.90;;;6.00;99.90;;;;;;4976600;28;20094;-85
2022/12/28 00:46:36;;;;;;;11.93;4.10;;;6.00;99.90;;;;;;4977336;28;20073;-85
2022/12/28 00:49:02;;;;;;;10.35;4.10;;;6.00;99.90;;;;;;4964853;28;20049;-85
2022/12/28 00:51:28;;;;;;;11.32;4.07;;;6.00;99.90;;;;;;4995643;28;20129;-85
2022/12/28 00:53:53;;;;;;;9.50;3.75;;;6.00;99.90;;;;;;4979560;28;20116;-85
2022/12/28 00:56:21;;;;;;;11.43;4.03;;;6.00;99.90;;;;;;4982012;28;20058;-84
2022/12/28 00:58:47;;;;;;;10.57;4.40;;;6.00;99.90;;;;;;4976879;28;20082;-85
2022/12/28 01:01:15;;;;;;;11.70;4.35;;;6.00;99.90;;;;;;4959497;28;20082;-85
2022/12/28 01:03:41;;;;;;;11.63;4.15;;;6.00;99.90;;;;;;4959932;28;20370;-85
2022/12/28 01:06:09;;;;;;;10.70;3.63;;;6.00;99.90;;;;;;4972872;28;20038;-85
2022/12/28 01:08:36;;;;;;;9.70;3.80;;;6.00;99.90;;;;;;4965638;28;20482;-85
2022/12/28 01:11:12;;;;;;;11.15;4.50;;;6.00;99.90;;;;;;4959787;28;20491;-85
2022/12/28 01:13:38;;;;;;;14.55;4.00;;;6.00;99.90;;;;;;4959777;28;20043;-85
2022/12/28 01:16:31;;;;;;;9.25;3.63;;;6.00;99.90;;;;;;4959607;28;20089;-85
2022/12/28 01:19:00;;;;;;;9.07;3.90;;;6.00;99.90;;;;;;4957107;28;20487;-85
2022/12/28 01:21:29;;;;;;;12.52;3.90;;;6.00;99.90;;;;;;4959604;28;20967;-85
2022/12/28 01:23:58;;;;;;;11.85;3.95;;;6.00;99.90;;;;;;4959385;28;20038;-85
2022/12/28 01:26:24;;;;;;;10.80;4.05;;;6.00;99.90;;;;;;4975837;28;20434;-85
2022/12/28 01:28:50;;;;;;;13.40;4.10;;;6.00;99.90;;;;;;4976439;28;20510;-85
2022/12/28 01:31:18;;;;;;;11.50;4.63;;;6.00;99.90;;;;;;4958476;28;20078;-85
2022/12/28 01:33:44;;;;;;;10.23;3.88;;;6.00;99.90;;;;;;4958445;28;20039;-85
2022/12/28 01:36:21;;;;;;;11.48;4.25;;;6.00;99.90;;;;;;4976469;28;20077;-84
2022/12/28 01:38:50;;;;;;;11.40;4.07;;;6.00;99.90;;;;;;4976071;28;20050;-85
2022/12/28 01:41:18;;;;;;;14.25;4.05;;;6.00;99.90;;;;;;4976507;28;20122;-85
2022/12/28 01:43:45;;;;;;;13.48;4.43;;;6.00;99.90;;;;;;4969467;28;20141;-85
2022/12/28 01:46:16;;;;;;;9.65;4.05;;;6.00;99.90;;;;;;4994760;28;20057;-85
2022/12/28 01:48:53;;;;;;;10.88;3.97;;;6.00;99.90;;;;;;4978395;28;20089;-85
2022/12/28 01:51:19;;;;;;;11.00;4.10;;;6.00;99.90;;;;;;4995256;28;20402;-85
2022/12/28 01:53:46;;;;;;;11.13;4.80;;;6.00;99.90;;;;;;4967756;28;20073;-85
2022/12/28 01:56:12;;;;;;;12.52;4.82;;;6.10;99.90;;;;;;4958587;28;20042;-85
2022/12/28 01:58:39;;;;;;;9.63;4.63;;;6.00;99.90;;;;;;4959030;28;20170;-85
2022/12/28 02:01:05;;;;;;;12.95;4.50;;;6.00;99.90;;;;;;4958415;28;20051;-85
2022/12/28 02:03:33;;;;;;;15.15;4.78;;;6.10;99.90;;;;;;4975217;28;20050;-85
2022/12/28 02:06:01;;;;;;;14.48;4.70;;;6.00;99.90;;;;;;4958970;28;20054;-85
2022/12/28 02:08:57;;;;;;;10.93;4.25;;;6.10;99.90;;;;;;4964502;28;20042;-85
2022/12/28 02:11:22;;;;;;;12.50;4.22;;;6.10;99.90;;;;;;4966462;28;20093;-85
2022/12/28 02:13:50;;;;;;;9.80;4.72;;;6.10;99.90;;;;;;4982468;28;20042;-84
2022/12/28 02:16:16;;;;;;;10.55;4.60;;;6.10;99.90;;;;;;4964865;28;20087;-85
2022/12/28 02:18:44;;;;;;;10.35;4.72;;;6.10;99.90;;;;;;4958225;28;20078;-84
2022/12/28 02:21:28;;;;;;;13.57;4.53;;;6.10;99.90;;;;;;4957338;28;20428;-85
2022/12/28 02:24:26;;;;;;;13.40;5.13;;;6.10;99.90;;;;;;4958023;28;20043;-85
2022/12/28 02:27:15;;;;;;;12.20;4.70;;;6.10;99.90;;;;;;4958128;28;20047;-85
2022/12/28 02:29:56;;;;;;;14.02;4.90;;;6.10;99.90;;;;;;4976127;28;20042;-85
2022/12/28 02:32:49;;;;;;;10.80;4.90;;;6.10;99.90;;;;;;4958216;28;20086;-85
2022/12/28 02:35:43;;;;;;;12.15;5.18;;;6.10;99.90;;;;;;4969771;28;20050;-84
2022/12/28 02:38:14;;;;;;;9.93;4.88;;;6.10;99.90;;;;;;4963797;28;20050;-84
2022/12/28 02:41:00;;;;;;;10.93;4.80;;;6.10;99.90;;;;;;4958507;28;20106;-85
2022/12/28 02:43:25;;;;;;;12.27;5.05;;;6.10;99.90;;;;;;4974542;28;20086;-84
2022/12/28 02:51:47;;;;;;;14.52;5.70;;;6.20;99.90;;;;;;4974794;28;20054;-84
2022/12/28 02:57:37;;;;;;;11.23;5.20;;;6.10;99.90;;;;;;4956990;28;20510;-84
2022/12/28 03:00:05;;;;;;;;;;;6.20;99.90;;;;;;4959137;28;20414;-84
2022/12/28 03:02:31;;;;;;;9.75;5.20;;;6.10;99.90;;;;;;4957628;28;19922;-85
2022/12/28 03:05:18;;;;;;;13.18;5.22;;;6.10;99.90;;;;;;4958773;28;20137;-85
2022/12/28 03:08:18;;;;;;;11.48;5.57;;;6.20;99.90;;;;;;4958552;28;20055;-85
2022/12/28 03:11:09;;;;;;;14.02;5.47;;;6.20;99.90;;;;;;4957965;28;20050;-84
2022/12/28 03:13:55;;;;;;;9.52;5.30;;;6.20;99.90;;;;;;4957363;28;21810;-85
2022/12/28 03:25:41;;;;;;;11.10;5.45;;;6.20;99.90;;;;;;4974586;28;20038;-85
2022/12/28 03:33:20;;;;;;;11.00;5.40;;;6.40;99.90;;;;;;4956100;28;20086;-85
2022/12/28 03:36:16;;;;;;;10.45;5.38;;;6.40;99.90;;;;;;4957131;28;20039;-84
2022/12/28 03:39:08;;;;;;;12.38;5.38;;;6.50;99.90;;;;;;4925778;28;20517;-85
2022/12/28 03:41:37;;;;;;;13.70;6.05;;;6.50;99.90;;;;;;4964355;28;20191;-85
2022/12/28 03:44:23;;;;;;;11.00;5.40;;;6.50;99.90;;;;;;4976272;28;20042;-85
2022/12/28 03:46:59;;;;;;;11.18;5.40;;;6.50;99.90;;;;;;4991460;28;20145;-85
2022/12/28 03:49:26;;;;;;;8.73;5.20;;;6.50;99.90;;;;;;4987269;28;20110;-85
2022/12/28 03:51:53;;;;;;;7.80;4.80;;;6.60;99.90;;;;;;4964768;28;20502;-85
2022/12/28 03:54:19;;;;;;;9.00;5.10;;;6.60;99.90;;;;;;4955335;28;20054;-86
2022/12/28 03:56:47;;;;;;;8.45;5.18;;;6.60;99.90;;;;;;4956636;28;20042;-85
2022/12/28 03:59:14;;;;;;;8.18;4.93;;;6.60;99.90;;;;;;4974147;28;20050;-85
2022/12/28 04:01:39;;;;;;;10.38;4.53;;;6.70;99.90;;;;;;4973292;28;20039;-85
2022/12/28 04:04:05;;;;;;;9.50;4.78;;;6.70;99.90;;;;;;4976144;28;20057;-85
2022/12/28 04:06:30;;;;;;;6.93;4.40;;;6.70;99.90;;;;;;4962347;28;20050;-85
2022/12/28 04:08:56;;;;;;;7.60;4.10;;;6.70;99.90;;;;;;4961235;28;20189;-85
2022/12/28 04:11:22;;;;;;;7.28;4.45;;;6.80;99.90;;;;;;4973786;28;20070;-85
2022/12/28 04:13:47;;;;;;;9.88;4.85;;;6.80;99.90;;;;;;4973209;28;20117;-85
2022/12/28 04:16:14;;;;;;;8.27;4.55;;;6.80;99.90;;;;;;4973718;28;20082;-85
2022/12/28 04:18:43;;;;;;;6.47;4.30;;;6.80;99.90;;;;;;4974369;28;20054;-84
2022/12/28 04:21:10;;;;;;;8.13;4.47;;;6.80;99.90;;;;;;4972893;28;20498;-85
2022/12/28 04:23:35;;;;;;;8.52;4.15;;;6.80;99.90;;;;;;4973708;28;20046;-85
2022/12/28 04:26:03;;;;;;;7.22;4.65;;;6.80;99.90;;;;;;4973261;28;20055;-85
2022/12/28 04:28:30;;;;;;;7.07;4.93;;;6.80;99.90;;;;;;4955312;28;20129;-85
2022/12/28 04:30:57;;;;;;;7.20;4.32;;;6.90;99.90;;;;;;4974175;28;20052;-85
2022/12/28 04:33:23;;;;;;;8.30;4.90;;;6.80;99.90;;;;;;4955880;28;20047;-85
2022/12/28 04:35:49;;;;;;;9.63;4.85;;;6.90;99.90;;;;;;4981345;28;20045;-85
2022/12/28 04:38:15;;;;;;;7.80;4.97;;;6.90;99.90;;;;;;4975649;28;20038;-84
2022/12/28 04:40:41;;;;;;;7.68;5.00;;;6.90;99.90;;;;;;4969182;28;20446;-85
2022/12/28 04:43:07;;;;;;;8.10;4.40;;;6.90;99.90;;;;;;4974770;28;20034;-84
2022/12/28 04:45:32;;;;;;;7.57;4.95;;;7.00;99.90;;;;;;4991223;28;20047;-84
2022/12/28 04:47:58;;;;;;;8.52;4.60;;;7.00;99.90;;;;;;4974794;28;20085;-85
2022/12/28 04:50:25;;;;;;;9.27;4.63;;;7.00;99.90;;;;;;4972466;28;20450;-84
2022/12/28 04:52:51;;;;;;;8.85;4.95;;;7.00;99.90;;;;;;4973560;28;20047;-84
2022/12/28 04:55:16;;;;;;;8.38;5.30;;;7.00;99.90;;;;;;4956299;28;20051;-84
2022/12/28 04:57:43;;;;;;;7.25;4.97;;;7.00;99.90;;;;;;4955685;28;20042;-85
2022/12/28 05:00:09;;;;;;;7.30;4.45;;;7.10;99.90;;;;;;4972913;28;20427;-85
2022/12/28 05:02:35;;;;;;;9.52;5.65;;;7.10;99.90;;;;;;4963952;28;20515;-85
2022/12/28 05:05:01;;;;;;;9.15;5.28;;;7.10;99.90;;;;;;4989065;28;20126;-85
2022/12/28 05:07:27;;;;;;;7.63;5.43;;;7.10;99.90;;;;;;4964542;28;20058;-84
2022/12/28 05:09:52;;;;;;;6.78;4.75;;;7.10;99.90;;;;;;4961759;28;20214;-84
2022/12/28 05:12:19;;;;;;;8.63;5.18;;;7.10;99.90;;;;;;4974933;28;20121;-85
2022/12/28 05:14:45;;;;;;;9.52;6.55;;;7.20;99.90;;;;;;4981542;28;20474;-85
2022/12/28 05:17:10;;;;;;;7.80;5.38;;;7.20;99.90;;;;;;4966176;28;20170;-85
2022/12/28 05:19:36;;;;;;;9.25;6.75;;;7.20;99.90;;;;;;4960823;28;20089;-84
2022/12/28 05:22:02;;;;;;;11.98;6.65;;;7.20;99.90;;;;;;4992000;28;20375;-85
2022/12/28 05:24:27;;;;;;;8.18;5.90;;;7.30;99.90;;;;;;4958258;28;20479;-84
2022/12/28 05:26:53;;;;;;;8.75;6.28;;;7.30;99.90;;;;;;4976969;28;20046;-85
2022/12/28 05:29:19;;;;;;;8.32;6.05;;;7.30;99.90;;;;;;4976562;28;20046;-85
2022/12/28 05:31:44;;;;;;;8.40;5.97;;;7.30;99.90;;;;;;4958600;28;20047;-85
2022/12/28 05:34:10;;;;;;;9.88;6.88;;;7.30;99.90;;;;;;4976443;28;20080;-85
2022/12/28 05:36:36;;;;;;;8.52;5.63;;;7.40;99.90;;;;;;4958079;28;20069;-85
2022/12/28 05:39:03;;;;;;;9.30;6.70;;;7.40;99.90;;;;;;4979076;28;20045;-85
2022/12/28 05:41:29;;;;;;;8.48;6.28;;;7.50;99.90;;;;;;4996004;28;20046;-85
2022/12/28 05:43:57;;;;;;;11.98;6.60;;;7.40;99.90;;;;;;4970720;28;20133;-84
2022/12/28 05:46:28;;;;;;;11.98;7.40;;;7.50;99.90;;;;;;4958123;28;20065;-84
2022/12/28 05:48:54;;;;;;;9.35;6.20;;;7.50;99.90;;;;;;4959318;28;20043;-85
2022/12/28 05:51:23;;;;;;;7.53;6.47;;;7.50;99.90;;;;;;4976401;28;20090;-83
2022/12/28 05:53:49;;;;;;;9.27;6.53;;;7.60;99.90;;;;;;4959046;28;20096;-83
2022/12/28 05:56:23;;;;;;;10.00;7.38;;;7.60;99.90;;;;;;4959050;28;20517;-84
2022/12/28 05:58:55;;;;;;;10.52;8.13;;;7.60;99.90;;;;;;4957944;28;20042;-84
2022/12/28 06:01:23;;;;;;;10.48;8.13;;;7.60;99.90;;;;;;4975355;28;20121;-83
2022/12/28 06:03:53;;;;;;;12.07;8.18;;;7.70;99.90;;;;;;4957925;28;20062;-85
2022/12/28 06:06:19;;;;;;;10.55;7.30;;;7.70;99.90;;;;;;4975261;28;20047;-85
2022/12/28 06:08:46;;;;;;;11.00;7.20;;;7.70;99.90;;;;;;4976189;28;20504;-86
2022/12/28 06:11:16;;;;;;;11.02;6.95;;;7.70;99.90;;;;;;4958903;28;20078;-90
2022/12/28 06:13:43;;;;;;;8.70;6.80;;;7.80;99.90;;;;;;4976480;28;20039;-91
2022/12/28 06:16:12;;;;;;;8.90;6.97;;;7.90;99.90;;;;;;4976261;28;20395;-89
2022/12/28 06:18:38;;;;;;;8.93;6.53;;;7.80;99.90;;;;;;4958611;28;20042;-93
2022/12/28 06:21:13;;;;;;;10.10;6.45;;;7.90;99.90;;;;;;4960309;28;20402;-91
2022/12/28 06:23:39;;;;;;;10.73;7.15;;;7.90;99.90;;;;;;4959368;28;20506;-89
2022/12/28 06:26:06;;;;;;;9.35;6.80;;;7.90;99.90;;;;;;4958928;28;20038;-88
2022/12/28 06:28:31;;;;;;;10.32;7.00;;;7.90;99.90;;;;;;4975528;28;20156;-89
2022/12/28 06:31:21;;;;;;;8.75;6.45;;;7.90;99.90;;;;;;4960354;28;20054;-89
2022/12/28 06:33:52;;;;;;;8.98;6.63;;;8.00;99.90;;;;;;4977650;28;20058;-89
2022/12/28 06:36:20;;;;;;;9.30;7.07;;;8.00;99.90;;;;;;4977503;28;20053;-87
2022/12/28 06:38:48;;;;;;;10.90;7.53;;;8.00;99.90;;;;;;4967075;28;20047;-89
2022/12/28 06:41:15;;;;;;;10.50;7.15;;;8.00;99.90;;;;;;4975010;28;20069;-89
2022/12/28 06:43:43;;;;;;;9.10;7.28;;;8.00;99.90;;;;;;4959835;28;20039;-88
2022/12/28 06:46:09;;;;;;;10.15;6.50;;;8.00;99.90;;;;;;4956155;28;20223;-88
2022/12/28 06:48:35;;;;;;;8.25;5.90;;;8.00;99.90;;;;;;4975753;28;20046;-87
2022/12/28 06:51:05;;;;;;;8.65;6.30;;;8.00;99.90;;;;;;4965803;28;20078;-85
2022/12/28 06:53:33;;;;;;;7.32;5.72;;;8.00;99.90;;;;;;4980946;28;20489;-86
2022/12/28 06:56:20;;;;;;;9.90;6.60;;;8.00;99.90;;;;;;4957483;28;20402;-87
2022/12/28 06:58:48;;;;;;;8.32;6.25;;;8.10;99.90;;;;;;4966977;28;20062;-87
2022/12/28 07:01:15;;;;;;;9.40;6.90;;;8.10;99.90;;;;;;4959431;28;20053;-87
2022/12/28 07:03:42;;;;;;;7.72;6.05;;;8.10;99.90;;;;;;4978951;28;20566;-88
2022/12/28 07:06:08;;;;;;;8.98;5.70;;;8.10;99.90;;;;;;4994398;28;20050;-87
2022/12/28 07:08:34;;;;;;;7.38;5.38;;;8.10;99.90;;;;;;4959585;28;20142;-90
2022/12/28 07:11:05;;;;;;;9.18;5.60;;;8.10;99.90;;;;;;4956030;28;20049;-87
2022/12/28 07:13:31;;;;;;;8.48;6.18;;;8.10;99.90;;;;;;4958507;28;20073;-87
2022/12/28 07:16:01;;;;;;;8.50;6.35;;;8.20;99.90;;;;;;4957877;28;20047;-88
2022/12/28 07:18:27;;;;;;;9.52;6.78;;;8.20;99.90;;;;;;4956180;28;20046;-89
2022/12/28 07:20:58;;;;;;;11.90;7.15;;;8.20;99.90;;;;;;4957789;28;20136;-89
2022/12/28 07:23:28;;;;;;;8.70;7.40;;;8.20;99.90;;;;;;4974303;28;20039;-90
2022/12/28 07:25:54;;;;;;;12.35;7.72;;;8.20;99.90;;;;;;4970227;28;20470;-89
2022/12/28 07:28:20;;;;;;;11.00;8.07;;;8.20;99.90;;;;;;4961955;28;20058;-90
2022/12/28 07:30:46;;;;;;;9.30;6.38;;;8.30;99.90;;;;;;4971786;28;20054;-92
2022/12/28 07:33:11;;;;;;;10.18;6.82;;;8.30;99.90;;;;;;4977712;28;20051;-91
2022/12/28 07:35:37;;;;;;;13.85;8.02;;;8.30;99.90;;;;;;4960803;28;20046;-92
2022/12/28 07:38:02;;;;;;;11.82;7.57;;;8.30;99.90;;;;;;4957761;28;20053;-92
2022/12/28 07:40:28;;;;;;;11.05;7.85;;;8.30;99.90;;;;;;4974497;28;20395;-84
2022/12/28 07:42:53;;;;;;;12.15;8.25;;;8.30;99.90;;;;;;4956287;28;20126;-85
2022/12/28 07:45:19;;;;;;;11.95;8.63;;;8.40;99.90;;;;;;4956237;28;20047;-85
2022/12/28 07:47:44;;;;;;;12.65;9.07;;;8.40;99.90;;;;;;4974541;28;20106;-85
2022/12/28 07:50:10;;;;;;;11.82;7.82;;;8.40;99.90;;;;;;4957162;28;20133;-85
2022/12/28 07:52:36;;;;;;;12.48;8.32;;;8.40;99.90;;;;;;4955940;28;20050;-85
2022/12/28 07:55:02;;;;;;;11.10;7.32;;;8.40;99.90;;;;;;4974449;28;20125;-85
2022/12/28 07:57:28;;;;;;;11.23;7.80;;;8.40;99.90;;;;;;4974557;28;20082;-85
2022/12/28 07:59:53;;;;;;;12.07;7.68;;;8.50;99.90;;;;;;4956009;28;20070;-85
2022/12/28 08:02:19;;;;;;;9.68;7.30;;;8.50;99.90;;;;;;4973806;28;20159;-86
2022/12/28 08:04:44;;;;;;;9.82;7.47;;;8.50;99.90;;;;;;4973723;28;20058;-86
2022/12/28 08:07:10;;;;;;;9.93;7.45;;;8.50;99.90;;;;;;4973617;28;20051;-86
2022/12/28 08:09:36;;;;;;;9.70;8.18;;;8.50;99.90;;;;;;4957280;28;20035;-86
2022/12/28 08:12:01;;;;;;;11.52;8.32;;;8.50;99.90;;;;;;4956846;28;20442;-86
2022/12/28 08:14:29;;;;;;;12.70;9.20;;;8.50;99.90;;;;;;4956153;28;20050;-85
2022/12/28 08:16:54;;;;;;;13.77;9.13;;;8.50;99.90;;;;;;4956918;28;20054;-85
2022/12/28 08:19:20;;;;;;;13.48;9.32;;;8.50;99.90;;;;;;4973765;28;20047;-85
2022/12/28 08:21:45;;;;;;;11.23;8.65;;;8.50;99.90;;;;;;4973010;28;20073;-84
2022/12/28 08:24:17;;;;;;;13.10;9.55;;;8.50;99.90;;;;;;4956353;28;20042;-86
2022/12/28 08:26:43;;;;;;;11.85;8.70;;;8.60;99.90;;;;;;4956296;28;20046;-85
2022/12/28 08:29:12;;;;;;;10.88;7.55;;;8.60;99.90;;;;;;4956171;28;20487;-87
2022/12/28 08:31:39;;;;;;;13.98;8.35;;;8.60;99.90;;;;;;4974165;28;20065;-86
2022/12/28 08:34:09;;;;;;;9.43;7.75;;;8.60;99.90;;;;;;4975356;28;20071;-86
2022/12/28 08:36:35;;;;;;;12.13;7.50;;;8.60;99.90;;;;;;4974435;28;20057;-87
2022/12/28 08:39:02;;;;;;;10.40;6.80;;;8.60;99.90;;;;;;4957059;28;20035;-87
2022/12/28 08:41:28;;;;;;;8.75;6.32;;;8.60;99.90;;;;;;4958240;28;20502;-86
2022/12/28 08:43:55;;;;;;;8.88;6.10;;;8.70;99.90;;;;;;4960559;28;20039;-87
2022/12/28 08:46:29;;;;;;;7.70;5.75;;;8.70;99.90;;;;;;4977635;28;20046;-87
2022/12/28 08:48:56;;;;;;;8.70;6.00;;;8.60;99.90;;;;;;4959713;28;20098;-86
2022/12/28 08:51:26;;;;;;;8.18;5.68;;;8.70;99.90;;;;;;4960290;28;20151;-87
2022/12/28 08:53:52;;;;;;;8.55;6.18;;;8.70;99.90;;;;;;4960609;28;20043;-87
2022/12/28 08:56:24;;;;;;;8.27;5.95;;;8.70;99.90;;;;;;4976721;28;20125;-86
2022/12/28 08:58:51;;;;;;;7.47;5.35;;;8.70;99.90;;;;;;4960854;28;20137;-85
2022/12/28 09:01:17;;;;;;;9.13;5.22;;;8.70;99.90;;;;;;4960119;28;20043;-85
2022/12/28 09:03:46;;;;;;;8.98;5.55;;;8.70;99.90;;;;;;4959428;28;20042;-85
2022/12/28 09:06:14;;;;;;;8.15;5.70;;;8.70;99.90;;;;;;4946481;28;20105;-86
2022/12/28 09:08:40;;;;;;;8.30;5.35;;;8.80;99.90;;;;;;4959452;28;20117;-85
2022/12/28 09:11:09;;;;;;;7.95;5.28;;;8.80;99.90;;;;;;4977141;28;20047;-84
2022/12/28 09:13:35;;;;;;;8.80;5.60;;;8.80;99.90;;;;;;4959975;28;20084;-85
2022/12/28 09:16:07;;;;;;;7.82;5.47;;;8.80;99.90;;;;;;4959704;28;20757;-85
2022/12/28 09:18:33;;;;;;;9.77;5.70;;;8.80;99.90;;;;;;4977252;28;20043;-85
2022/12/28 09:21:10;;;;;;;8.68;6.05;;;8.80;99.90;;;;;;4959507;28;20094;-84
2022/12/28 09:23:36;;;;;;;10.50;5.90;;;8.80;99.90;;;;;;4976230;28;20402;-85
2022/12/28 09:26:06;;;;;;;9.15;5.75;;;8.80;99.90;;;;;;4959775;28;20039;-85
2022/12/28 09:28:32;;;;;;;7.65;5.38;;;8.80;99.90;;;;;;4959786;28;20035;-84
2022/12/28 09:31:00;;;;;;;8.23;5.45;;;8.90;99.90;;;;;;4975928;28;20043;-84
2022/12/28 09:36:10;;;;;;;7.18;5.10;;;8.90;99.90;;;;;;4958543;28;20042;-84
2022/12/28 09:38:35;;;;;;;10.18;5.32;;;8.90;99.90;;;;;;4959240;28;20139;-84
2022/12/28 09:41:17;;;;;;;7.30;4.63;;;8.90;99.90;;;;;;4959709;28;20068;-84
2022/12/28 09:43:43;;;;;;;8.20;4.78;;;8.90;99.90;;;;;;4959177;28;20050;-84
2022/12/28 09:46:10;;;;;;;9.25;4.55;;;8.90;99.90;;;;;;4958343;28;20429;-84
2022/12/28 09:48:37;;;;;;;6.72;4.75;;;8.90;99.90;;;;;;4959274;28;20046;-84
2022/12/28 09:51:03;;;;;;;6.60;4.65;;;8.90;99.90;;;;;;4958511;28;20051;-84
2022/12/28 09:53:33;;;;;;;8.98;5.20;;;9.00;99.90;;;;;;4975690;28;20097;-84
2022/12/28 09:56:23;;;;;;;11.88;6.32;;;9.00;99.90;;;;;;4976641;28;20121;-84
2022/12/28 09:58:50;;;;;;;8.10;5.68;;;9.00;99.90;;;;;;4958539;28;20050;-84
2022/12/28 10:01:17;;;;;;;9.20;5.47;;;9.00;99.90;;;;;;4975636;28;20046;-84
2022/12/28 10:03:45;;;;;;;7.80;5.25;;;9.00;99.90;;;;;;4958799;28;20511;-84
2022/12/28 10:06:19;;;;;;;7.70;5.43;;;9.00;99.90;;;;;;4975791;28;20047;-84
2022/12/28 10:08:47;;;;;;;7.50;5.15;;;9.00;99.90;;;;;;4958800;28;20094;-84
2022/12/28 10:11:23;;;;;;;9.48;5.78;;;9.00;99.90;;;;;;4975802;28;20039;-88
2022/12/28 10:13:55;;;;;;;6.25;4.25;;;9.00;99.90;;;;;;4986324;28;20038;-89
2022/12/28 10:16:23;;;;;;;7.60;4.80;;;9.10;99.90;;;;;;4977834;28;20056;-88
2022/12/28 10:18:49;;;;;;;9.70;5.20;;;9.10;99.90;;;;;;4983524;28;20049;-85
2022/12/28 10:21:20;;;;;;;6.00;4.40;;;9.10;99.90;;;;;;4978944;28;20046;-85
2022/12/28 10:23:49;;;;;;;7.55;4.82;;;9.10;99.90;;;;;;4962413;28;20046;-86
2022/12/28 10:26:17;;;;;;;9.00;4.50;;;9.10;99.90;;;;;;4971382;28;20043;-86
2022/12/28 10:28:48;;;;;;;6.78;3.95;;;9.10;99.90;;;;;;4956677;28;20051;-86
2022/12/28 10:31:15;;;;;;;8.90;4.00;;;9.10;99.90;;;;;;4967971;28;20081;-85
2022/12/28 10:33:50;;;;;;;6.07;4.07;;;9.20;99.90;;;;;;4971320;28;20118;-85
2022/12/28 10:36:17;;;;;;;7.75;4.15;;;9.20;99.90;;;;;;4958938;28;20044;-85
2022/12/28 10:38:49;;;;;;;5.82;3.78;;;9.20;99.90;;;;;;4941674;28;20035;-84
2022/12/28 10:41:17;;;;;;;8.40;3.70;;;9.20;99.90;;;;;;4944779;28;20480;-85
2022/12/28 10:43:51;;;;;;;6.20;3.60;;;9.20;99.90;;;;;;4973314;28;20050;-85
2022/12/28 10:46:24;;;;;;;5.95;3.60;;;9.20;99.90;;;;;;4957715;28;20553;-85
2022/12/28 10:48:52;;;;;;;5.50;4.00;;;9.20;99.90;;;;;;4962956;28;20042;-84
2022/12/28 10:51:19;;;;;;;5.30;3.80;;;9.20;99.90;;;;;;4979065;28;20035;-85
2022/12/28 10:53:48;;;;;;;7.20;4.00;;;9.20;99.90;;;;;;4966773;28;20514;-86
2022/12/28 10:56:13;;;;;;;5.93;4.15;;;9.20;99.90;;;;;;4974549;28;20078;-86
2022/12/28 10:58:41;;;;;;;6.13;3.72;;;9.30;99.90;;;;;;4975196;28;20051;-86
2022/12/28 11:01:12;;;;;;;6.57;3.95;;;9.30;99.90;;;;;;4954943;28;20047;-87
2022/12/28 11:03:54;;;;;;;5.20;3.63;;;9.30;99.90;;;;;;4951331;28;20431;-87
2022/12/28 11:06:23;;;;;;;6.47;3.88;;;9.30;99.90;;;;;;4975390;28;20043;-84
2022/12/28 11:09:05;;;;;;;5.68;4.03;;;9.30;99.90;;;;;;4954534;28;20514;-84
2022/12/28 11:11:32;;;;;;;5.43;4.00;;;9.30;99.90;;;;;;4966930;28;20490;-85
2022/12/28 11:14:12;;;;;;;5.70;3.80;;;9.30;99.90;;;;;;4975229;28;20038;-84
2022/12/28 11:16:40;;;;;;;5.15;3.88;;;9.30;99.90;;;;;;4974030;28;20050;-85
2022/12/28 11:19:05;;;;;;;5.60;3.75;;;9.30;99.90;;;;;;4954040;28;20071;-85
2022/12/28 11:21:33;;;;;;;6.38;4.30;;;9.30;99.90;;;;;;4952183;28;20057;-85
2022/12/28 11:23:59;;;;;;;5.97;4.30;;;9.30;99.90;;;;;;4973448;28;20070;-85
2022/12/28 11:26:26;;;;;;;5.75;4.47;;;9.30;99.90;;;;;;4976992;28;20082;-85
2022/12/28 11:28:53;;;;;;;6.95;4.22;;;9.30;99.90;;;;;;4954104;28;20431;-86
2022/12/28 11:31:35;;;;;;;6.47;4.15;;;9.30;99.90;;;;;;4970016;28;20117;-85
2022/12/28 11:34:05;;;;;;;7.35;4.05;;;9.30;99.90;;;;;;4957146;28;20050;-85
2022/12/28 11:36:36;;;;;;;5.88;3.63;;;9.30;99.90;;;;;;4958970;28;20049;-85
2022/12/28 11:39:24;;;;;;;6.28;3.65;;;9.30;99.90;;;;;;4958330;28;20495;-85
2022/12/28 11:41:57;;;;;;;6.07;3.53;;;9.30;99.90;;;;;;4937223;28;20432;-85
2022/12/28 11:44:29;;;;;;;6.05;3.97;;;9.30;99.90;;;;;;4970990;28;20057;-85
2022/12/28 11:47:20;;;;;;;6.85;4.25;;;9.30;99.90;;;;;;4958963;28;20482;-87
2022/12/28 11:49:47;;;;;;;4.75;3.40;;;9.30;99.90;;;;;;4978432;28;20039;-92
2022/12/28 11:52:15;;;;;;;5.10;3.15;;;9.30;99.90;;;;;;4977499;28;20121;-91
2022/12/28 11:54:59;;;;;;;4.90;3.70;;;9.30;99.90;;;;;;4961485;28;20398;-93
2022/12/28 11:57:35;;;;;;;4.90;3.22;;;9.30;99.90;;;;;;4960911;28;20050;-94
2022/12/28 12:00:16;;;;;;;4.47;3.10;;;9.40;99.90;;;;;;4960020;28;20047;-94
2022/12/28 12:02:48;;;;;;;5.05;3.13;;;9.40;99.90;;;;;;4975866;28;20074;-95
2022/12/28 12:05:36;;;;;;;4.70;3.10;;;9.40;99.90;;;;;;4953125;28;20046;-94
2022/12/28 12:08:10;;;;;;;4.60;2.97;;;9.40;99.90;;;;;;4974324;28;20078;-93
2022/12/28 12:10:38;;;;;;;5.00;3.30;;;9.40;99.90;;;;;;4966172;28;20094;-94
2022/12/28 12:13:25;;;;;;;4.55;2.80;;;9.40;99.90;;;;;;4959309;28;20050;-93
2022/12/28 12:16:02;;;;;;;6.18;3.17;;;9.30;99.90;;;;;;4978219;28;20052;-94
2022/12/28 12:18:49;;;;;;;4.65;3.30;;;9.30;99.90;;;;;;4956920;28;20057;-92
2022/12/28 12:21:44;;;;;;;5.25;3.40;;;9.30;99.90;;;;;;4956796;28;20038;-93
2022/12/28 12:24:17;;;;;;;5.75;3.45;;;9.30;99.90;;;;;;4974465;28;20426;-92
2022/12/28 12:26:45;;;;;;;;;;;9.30;99.90;;;;;;4962501;28;20628;-93
2022/12/28 12:29:20;;;;;;;7.38;3.40;;;9.30;99.90;;;;;;4956807;28;19922;-93
2022/12/28 12:31:55;;;;;;;5.43;4.05;;;9.30;99.90;;;;;;4957762;28;20046;-94
2022/12/28 12:34:33;;;;;;;5.05;3.70;;;9.30;99.90;;;;;;4956540;28;20043;-94
2022/12/28 12:37:10;;;;;;;5.95;3.95;;;9.30;99.90;;;;;;4950538;28;20486;-93
2022/12/28 12:39:47;;;;;;;5.88;4.20;;;9.30;99.90;;;;;;4974587;28;20039;-92
2022/12/28 12:42:30;;;;;;;5.10;3.72;;;9.30;99.90;;;;;;4961756;28;20051;-94
2022/12/28 12:44:58;;;;;;;5.68;3.65;;;9.40;99.90;;;;;;4952250;28;20102;-92
2022/12/28 12:48:08;;;;;;;6.07;3.70;;;9.30;99.90;;;;;;4956456;28;20554;-94
2022/12/28 12:50:58;;;;;;;5.32;3.33;;;9.30;99.90;;;;;;4982277;28;20046;-93
2022/12/28 12:53:38;;;;;;;5.00;3.47;;;9.30;99.90;;;;;;4962610;28;20043;-91
2022/12/28 12:56:22;;;;;;;5.63;3.30;;;9.30;99.90;;;;;;4956217;28;20051;-94
2022/12/28 12:58:58;;;;;;;;;;;9.30;99.90;;;;;;4951068;28;20054;-92
2022/12/28 13:01:49;;;;;;;4.80;3.30;;;9.30;99.90;;;;;;4956436;28;19937;-92
2022/12/28 13:04:25;;;;;;;5.43;3.17;;;9.30;99.90;;;;;;4965088;28;20109;-93
2022/12/28 13:07:02;;;;;;;5.13;3.78;;;9.30;99.90;;;;;;4955350;28;20070;-92
2022/12/28 13:09:31;;;;;;;4.20;2.80;;;9.30;99.90;;;;;;4977881;28;20127;-94
2022/12/28 13:11:57;;;;;;;5.53;3.08;;;9.30;99.90;;;;;;4972886;28;20130;-93
2022/12/28 13:14:23;;;;;;;5.57;3.08;;;9.30;99.90;;;;;;4980998;28;20499;-93
2022/12/28 13:16:55;;;;;;;4.13;2.70;;;9.30;99.90;;;;;;4956742;28;20051;-93
2022/12/28 13:19:27;;;;;;;4.70;2.63;;;9.30;99.90;;;;;;4964395;28;20086;-93
2022/12/28 13:21:54;;;;;;;5.13;2.85;;;9.30;99.90;;;;;;4948930;28;20043;-92
2022/12/28 13:24:27;;;;;;;5.97;2.78;;;9.30;99.90;;;;;;4953220;29;20090;-92
2022/12/28 13:26:54;;;;;;;;;;;9.30;99.90;;;;;;4953573;28;20097;-91
2022/12/28 13:29:22;;;;;;;5.18;2.65;;;9.30;99.90;;;;;;4961914;28;19922;-95
2022/12/28 13:31:48;;;;;;;5.75;2.83;;;9.30;99.90;;;;;;4980604;28;20046;-91
2022/12/28 13:34:24;;;;;;;4.40;2.60;;;9.30;99.90;;;;;;4958581;28;20133;-92
2022/12/28 13:36:56;;;;;;;4.95;2.45;;;9.30;99.90;;;;;;4984708;28;20038;-91